Time;durP1;ratioP1;P1;durP2;ratioP2;P2;SDS_P1;SDS_P2;PMS_P1;PMS_P2;Temp;Humidity;BMP_temperature;BMP_pressure;BME280_temperature;BME280_humidity;BME280_pressure;Samples;Min_cycle;Max_cycle;Signal;HPM_P1;HPM_P2
2022/03/09 00:00:38;;;;;;;11.68;7.50;;;;;;;-0.65;65.07;101438.69;4972863;28;20424;-63
2022/03/09 00:03:41;;;;;;;8.48;6.35;;;;;;;-0.64;64.82;101442.97;4973080;28;20053;-62
2022/03/09 00:06:45;;;;;;;13.00;6.82;;;;;;;-0.98;65.04;101443.53;4972802;28;20057;-63
2022/03/09 00:09:48;;;;;;;11.57;6.38;;;;;;;-0.90;65.62;101443.59;4972663;28;20460;-63
2022/03/09 00:12:52;;;;;;;12.10;7.60;;;;;;;-0.87;65.70;101448.75;4972792;28;20097;-63
2022/03/09 00:15:55;;;;;;;11.18;7.28;;;;;;;-1.00;65.97;101452.06;4972775;28;20045;-63
2022/03/09 00:18:58;;;;;;;11.07;7.22;;;;;;;-1.06;65.56;101452.84;4972851;28;20114;-63
2022/03/09 00:22:02;;;;;;;;;;;;;;;-1.04;65.44;101450.31;4973205;28;20628;-63
2022/03/09 00:25:05;;;;;;;11.52;6.85;;;;;;;-1.06;65.47;101449.41;4972639;28;19922;-63
2022/03/09 00:28:08;;;;;;;15.20;7.32;;;;;;;-1.00;65.43;101454.63;4972638;28;20555;-62
2022/03/09 00:31:12;;;;;;;10.30;6.75;;;;;;;-1.04;65.36;101448.59;4972614;28;20042;-63
2022/03/09 00:34:16;;;;;;;11.48;6.55;;;;;;;-1.05;65.32;101448.59;4972739;28;20118;-62
2022/03/09 00:37:20;;;;;;;11.68;7.07;;;;;;;-1.07;65.75;101452.84;4972466;28;20109;-63
2022/03/09 00:40:23;;;;;;;10.25;6.80;;;;;;;-0.98;65.34;101447.81;4972468;28;20162;-63
2022/03/09 00:43:27;;;;;;;12.88;7.85;;;;;;;-1.17;66.04;101462.16;4972527;28;20046;-62
2022/03/09 00:46:32;;;;;;;10.68;7.28;;;;;;;-1.32;66.46;101452.56;4953569;29;20121;-63
2022/03/09 00:49:36;;;;;;;13.00;7.57;;;;;;;-1.52;67.48;101452.34;4953382;29;20456;-63
2022/03/09 00:52:39;;;;;;;11.45;6.43;;;;;;;-1.50;67.25;101462.59;4944964;29;20568;-63
2022/03/09 00:55:42;;;;;;;11.63;6.55;;;;;;;-1.41;67.12;101472.97;4953146;29;20046;-63
2022/03/09 00:58:47;;;;;;;10.00;7.07;;;;;;;-1.62;67.29;101472.75;4953310;29;20072;-63
2022/03/09 01:01:50;;;;;;;8.88;6.50;;;;;;;-1.40;66.92;101472.16;4953029;29;20048;-63
2022/03/09 01:04:54;;;;;;;17.95;7.43;;;;;;;-1.32;65.87;101465.41;4952933;29;20069;-63
2022/03/09 01:07:57;;;;;;;;;;;;;;;-1.46;66.24;101469.53;4956035;28;20057;-63
2022/03/09 01:11:00;;;;;;;17.58;7.80;;;;;;;-1.32;65.55;101464.53;4956546;29;19928;-63
2022/03/09 01:14:04;;;;;;;11.38;7.28;;;;;;;-1.48;66.31;101463.50;4951339;29;20098;-63
2022/03/09 01:17:07;;;;;;;15.75;7.38;;;;;;;-1.34;66.34;101469.66;4956715;29;20139;-62
2022/03/09 01:20:11;;;;;;;11.07;7.18;;;;;;;-1.23;66.29;101464.66;4956132;29;20119;-63
2022/03/09 01:23:16;;;;;;;11.90;6.78;;;;;;;-1.39;66.42;101473.03;4956345;29;20050;-63
2022/03/09 01:26:20;;;;;;;12.10;7.85;;;;;;;-1.37;66.42;101468.75;4953250;29;20082;-63
2022/03/09 01:29:23;;;;;;;12.32;7.47;;;;;;;-1.71;67.43;101471.75;4956453;29;20465;-63
2022/03/09 01:32:27;;;;;;;12.32;7.07;;;;;;;-1.77;67.60;101469.13;4955856;29;20046;-63
2022/03/09 01:35:30;;;;;;;10.70;6.43;;;;;;;-1.58;67.50;101471.94;4956007;29;20473;-63
2022/03/09 01:38:34;;;;;;;11.50;7.03;;;;;;;-1.64;67.41;101468.44;4956168;29;20050;-63
2022/03/09 01:41:38;;;;;;;13.73;7.63;;;;;;;-1.49;66.96;101466.91;4955894;29;20070;-63
2022/03/09 01:44:41;;;;;;;10.02;6.32;;;;;;;-1.56;66.66;101468.53;4964882;28;20053;-63
2022/03/09 01:47:44;;;;;;;11.75;7.05;;;;;;;-1.96;65.76;101464.59;4975015;28;20053;-63
2022/03/09 01:50:48;;;;;;;11.23;7.88;;;;;;;-1.74;64.98;101458.91;4974767;28;20129;-63
2022/03/09 01:53:51;;;;;;;13.20;7.63;;;;;;;-2.00;66.88;101455.13;4974816;28;20055;-63
2022/03/09 01:56:56;;;;;;;9.77;7.03;;;;;;;-2.01;67.31;101458.50;4974807;28;20097;-63
2022/03/09 01:59:59;;;;;;;14.57;7.27;;;;;;;-1.88;67.81;101460.44;4975091;28;20061;-63
2022/03/09 02:03:03;;;;;;;10.75;7.18;;;;;;;-1.84;67.96;101457.06;4974581;28;20097;-63
2022/03/09 02:06:06;;;;;;;11.48;7.03;;;;;;;-1.94;66.75;101455.22;4974798;28;20511;-63
2022/03/09 02:12:32;;;;;;;12.47;7.67;;;;;;;-1.95;67.72;101453.47;4962724;28;20125;-63
2022/03/09 02:15:35;;;;;;;10.25;6.88;;;;;;;-1.94;67.58;101453.50;4974683;28;20049;-63
2022/03/09 02:18:38;;;;;;;;;;;;;;;-2.25;68.57;101453.91;4974064;28;20049;-63
2022/03/09 02:21:43;;;;;;;12.00;7.00;;;;;;;-2.29;69.52;101455.56;4974639;28;19921;-63
2022/03/09 02:24:48;;;;;;;13.00;6.50;;;;;;;-2.28;68.78;101453.88;4974557;28;20412;-63
2022/03/09 02:27:51;;;;;;;18.50;9.30;;;;;;;-2.28;69.74;101453.88;4974235;28;20531;-63
2022/03/09 02:30:57;;;;;;;10.82;6.93;;;;;;;-2.13;68.96;101454.94;4974232;28;20093;-63
2022/03/09 02:34:00;;;;;;;11.57;7.60;;;;;;;-2.25;68.82;101459.03;4974386;28;20492;-63
2022/03/09 02:42:07;;;;;;;12.57;6.47;;;;;;;-2.32;69.40;101452.97;4973951;28;20086;-63
2022/03/09 02:45:11;;;;;;;10.50;7.00;;;;;;;-2.22;68.91;101449.69;4973804;28;20058;-63
2022/03/09 02:48:14;;;;;;;;;;;;;;;-2.41;68.54;101452.81;4974376;28;20045;-63
2022/03/09 02:51:17;;;;;;;11.52;7.18;;;;;;;-2.55;69.44;101456.84;4973686;28;19941;-63
2022/03/09 02:54:21;;;;;;;11.02;6.93;;;;;;;-2.41;68.79;101452.81;4973671;28;20045;-63
2022/03/09 02:57:24;;;;;;;9.88;6.45;;;;;;;-2.27;68.24;101455.56;4973701;28;20068;-63
2022/03/09 03:00:28;;;;;;;10.00;6.80;;;;;;;-2.35;68.44;101445.22;4973643;28;20108;-63
2022/03/09 03:03:31;;;;;;;10.13;6.32;;;;;;;-2.20;68.32;101449.69;4973609;28;20511;-63
2022/03/09 03:06:34;;;;;;;8.52;6.82;;;;;;;-2.16;67.98;101454.91;4973917;28;20054;-63
2022/03/09 03:09:37;;;;;;;9.77;6.68;;;;;;;-2.16;68.12;101447.22;4973652;28;20151;-63
2022/03/09 03:12:41;;;;;;;11.07;6.78;;;;;;;-2.27;68.50;101451.31;4973532;28;20049;-63
2022/03/09 03:15:44;;;;;;;11.18;7.28;;;;;;;-2.45;68.21;101457.03;4973375;28;20170;-63
2022/03/09 03:18:48;;;;;;;12.30;7.93;;;;;;;-2.70;69.31;101455.75;4973443;28;20049;-63
2022/03/09 03:21:51;;;;;;;13.65;7.90;;;;;;;-2.58;69.42;101455.97;4973383;28;20046;-62
2022/03/09 03:24:54;;;;;;;10.20;6.93;;;;;;;-2.44;69.01;101453.63;4973277;28;20041;-63
2022/03/09 03:27:57;;;;;;;10.20;6.45;;;;;;;-2.36;68.46;101458.88;4973389;28;20146;-63
2022/03/09 03:31:01;;;;;;;9.50;6.65;;;;;;;-2.47;68.34;101457.84;4972999;28;20503;-63
2022/03/09 03:34:04;;;;;;;13.18;7.75;;;;;;;-2.71;68.83;101459.16;4978739;28;20076;-63
2022/03/09 03:37:07;;;;;;;13.82;7.38;;;;;;;-2.78;69.56;101462.44;4993429;28;20129;-62
2022/03/09 03:40:11;;;;;;;;;;;;;;;-2.68;69.78;101472.03;4992663;28;20096;-63
2022/03/09 03:43:14;;;;;;;12.23;7.75;;;;;;;-2.70;69.51;101463.44;4991009;28;20455;-63
2022/03/09 03:46:17;;;;;;;10.75;6.28;;;;;;;-2.64;69.57;101455.00;4992033;28;20057;-63
2022/03/09 03:49:21;;;;;;;9.30;6.22;;;;;;;-2.76;69.71;101465.91;4991946;28;20180;-63
2022/03/09 03:52:24;;;;;;;10.48;7.40;;;;;;;-2.76;69.28;101467.59;4992073;28;20085;-63
2022/03/09 03:55:27;;;;;;;10.48;6.20;;;;;;;-2.66;69.25;101467.78;4991591;28;20416;-63
2022/03/09 03:58:31;;;;;;;14.57;6.85;;;;;;;-2.81;70.38;101470.94;4991925;28;20510;-62
2022/03/09 04:01:34;;;;;;;11.57;7.15;;;;;;;-2.68;69.11;101477.16;4992032;28;20045;-63
2022/03/09 04:04:38;;;;;;;9.63;6.90;;;;;;;-3.00;69.92;101480.81;4991587;28;20049;-63
2022/03/09 04:07:41;;;;;;;10.40;6.55;;;;;;;-2.99;70.49;101482.56;4991940;28;20472;-63
2022/03/09 04:10:45;;;;;;;12.20;7.00;;;;;;;-2.81;70.04;101483.75;4991555;28;20093;-63
2022/03/09 04:13:49;;;;;;;10.40;7.60;;;;;;;-2.76;69.23;101476.13;4991902;28;20096;-63
2022/03/09 04:16:52;;;;;;;9.97;7.03;;;;;;;-2.81;69.85;101478.63;4644004;28;10000433;-63
2022/03/09 04:19:56;;;;;;;10.27;6.93;;;;;;;-2.81;68.17;101472.63;4988607;28;20447;-62
2022/03/09 04:22:59;;;;;;;11.63;7.28;;;;;;;-3.01;69.66;101481.66;4989901;28;20096;-63
2022/03/09 04:26:06;;;;;;;;;;;;;;;-2.96;70.01;101480.03;4991526;28;20050;-63
2022/03/09 04:29:10;;;;;;;9.73;6.30;;;;;;;-2.95;69.80;101477.50;4991629;28;20304;-63
2022/03/09 04:32:13;;;;;;;;;;;;;;;-3.06;69.93;101484.13;4991920;28;20045;-63
2022/03/09 04:35:16;;;;;;;12.37;6.53;;;;;;;-2.98;69.13;101484.25;4992252;28;20390;-63
2022/03/09 04:38:19;;;;;;;14.50;7.25;;;;;;;-3.46;70.06;101475.66;5010076;28;20111;-63
2022/03/09 04:41:23;;;;;;;9.27;6.73;;;;;;;-3.40;69.64;101480.91;5011083;28;20108;-63
2022/03/09 04:44:27;;;;;;;12.02;6.22;;;;;;;-3.22;69.56;101477.88;5014821;28;20115;-63
2022/03/09 04:47:30;;;;;;;9.77;6.88;;;;;;;-3.15;69.83;101474.56;5014498;28;20123;-63
2022/03/09 04:50:33;;;;;;;11.65;7.28;;;;;;;-3.16;70.28;101475.41;5014812;28;20052;-63
2022/03/09 04:53:37;;;;;;;9.10;6.23;;;;;;;-3.10;69.31;101472.94;5014757;28;20183;-63
2022/03/09 04:56:41;;;;;;;16.23;7.68;;;;;;;-3.10;69.01;101475.50;5014392;28;20056;-62
2022/03/09 04:59:44;;;;;;;11.15;6.85;;;;;;;-3.19;68.75;101470.25;5002364;28;20509;-63
2022/03/09 05:02:47;;;;;;;8.82;5.97;;;;;;;-3.33;70.33;101466.53;5014235;28;20053;-62
2022/03/09 05:05:51;;;;;;;;;;;;;;;-3.29;70.20;101468.31;5015208;28;20048;-62
2022/03/09 05:09:04;;;;;;;12.43;6.00;;;;;;;-3.24;69.84;101469.28;5014305;28;19968;-62
2022/03/09 05:12:08;;;;;;;12.02;7.65;;;;;;;-3.16;69.94;101474.53;5014219;28;20095;-63
2022/03/09 05:15:11;;;;;;;11.60;7.50;;;;;;;-3.44;70.88;101473.16;5013937;28;20112;-63
2022/03/09 05:22:15;;;;;;;11.53;7.10;;;;;;;-3.46;70.10;101473.09;4990484;28;20782;-63
2022/03/09 05:25:28;;;;;;;11.90;7.50;;;;;;;-3.34;70.33;101482.72;4989940;28;20114;-62
2022/03/09 05:28:34;;;;;;;10.53;6.70;;;;;;;-3.26;70.12;101483.72;4991841;28;20104;-62
2022/03/09 05:31:37;;;;;;;9.40;6.45;;;;;;;-3.27;70.22;101482.00;4989901;28;20088;-62
2022/03/09 05:34:41;;;;;;;11.37;7.37;;;;;;;-3.22;70.00;101479.53;4989546;28;20053;-63
2022/03/09 05:37:45;;;;;;;11.13;6.80;;;;;;;-3.44;69.69;101488.50;4989823;28;20061;-62
2022/03/09 05:40:48;;;;;;;10.53;6.90;;;;;;;-3.48;68.87;101495.22;4990733;28;20084;-63
2022/03/09 05:43:52;;;;;;;11.80;6.72;;;;;;;-3.64;70.70;101500.84;4990389;28;21318;-63
2022/03/09 05:46:57;;;;;;;12.23;7.47;;;;;;;-3.66;70.73;101511.03;4990556;28;20530;-62
2022/03/09 05:50:00;;;;;;;11.20;6.47;;;;;;;-3.61;71.24;101501.75;4990895;28;20141;-63
2022/03/09 05:53:03;;;;;;;11.75;8.25;;;;;;;-3.43;70.77;101510.66;4977709;28;20095;-62
2022/03/09 05:56:07;;;;;;;11.98;7.68;;;;;;;-3.67;71.90;101513.56;4986490;28;20636;-63
2022/03/09 05:59:11;;;;;;;14.38;7.47;;;;;;;-3.63;71.54;101512.81;4991056;28;20491;-62
2022/03/09 06:02:14;;;;;;;12.30;6.53;;;;;;;-3.64;71.29;101516.19;4991223;28;20045;-63
2022/03/09 06:05:18;;;;;;;10.17;6.87;;;;;;;-3.60;71.03;101518.00;4990943;28;20427;-62
2022/03/09 06:08:22;;;;;;;12.50;8.43;;;;;;;-3.70;71.31;101522.03;4992238;28;20097;-62
2022/03/09 06:11:25;;;;;;;11.95;7.03;;;;;;;-3.70;71.13;101524.59;4991867;28;20065;-63
2022/03/09 06:14:29;;;;;;;11.98;7.82;;;;;;;-3.54;70.89;101533.47;4993457;28;20069;-62
2022/03/09 06:17:32;;;;;;;13.98;8.93;;;;;;;-3.66;70.88;101544.28;4993538;28;20134;-63
2022/03/09 06:20:36;;;;;;;;;;;;;;;-3.58;70.47;101542.72;4991142;28;20057;-63
2022/03/09 06:23:40;;;;;;;15.13;8.75;;;;;;;-3.57;70.79;101544.47;4991452;28;19968;-62
2022/03/09 06:26:43;;;;;;;;;;;;;;;-3.71;71.01;101545.00;4993054;28;20101;-63
2022/03/09 06:29:46;;;;;;;26.35;13.38;;;;;;;-3.57;71.16;101543.63;4992188;28;19967;-62
2022/03/09 06:32:49;;;;;;;;;;;;;;;-3.52;71.39;101542.00;4994149;28;20125;-63
2022/03/09 06:35:52;;;;;;;22.23;12.00;;;;;;;-3.58;71.24;101547.84;4993557;28;19967;-63
2022/03/09 06:38:55;;;;;;;16.00;8.63;;;;;;;-3.76;71.72;101550.03;4993490;28;20104;-62
2022/03/09 06:41:59;;;;;;;;;;;;;;;-3.77;71.95;101554.25;4994169;28;20049;-62
2022/03/09 06:45:03;;;;;;;11.10;7.67;;;;;;;-3.62;72.46;101555.44;4993333;28;19965;-62
2022/03/09 06:48:07;;;;;;;14.17;7.87;;;;;;;-3.69;72.73;101564.66;4993056;28;20631;-62
2022/03/09 06:51:11;;;;;;;12.27;6.93;;;;;;;-3.61;72.16;101560.56;4993202;28;20072;-62
2022/03/09 06:54:14;;;;;;;10.60;7.47;;;;;;;-3.41;71.61;101563.56;4993321;28;20116;-63
2022/03/09 06:57:17;;;;;;;;;;;;;;;-3.63;72.44;101567.34;4993533;28;20114;-63
2022/03/09 07:00:20;;;;;;;10.07;7.13;;;;;;;-3.70;72.40;101570.59;4993073;28;19961;-62
2022/03/09 07:03:23;;;;;;;12.52;6.90;;;;;;;-3.66;72.43;101569.84;4992950;28;20144;-63
2022/03/09 07:10:46;;;;;;;13.43;7.70;;;;;;;-3.43;72.16;101589.94;4992588;28;20511;-62
2022/03/09 07:13:49;;;;;;;11.27;7.17;;;;;;;-3.29;71.35;101591.97;4992758;28;20058;-63
2022/03/09 07:16:52;;;;;;;11.73;6.57;;;;;;;-3.10;70.30;101588.06;4992890;28;20085;-62
2022/03/09 07:19:56;;;;;;;11.70;7.97;;;;;;;-3.05;70.95;101581.38;4992800;28;20049;-62
2022/03/09 07:22:59;;;;;;;11.38;6.97;;;;;;;-3.04;70.57;101593.31;4992712;28;20053;-63
2022/03/09 07:26:02;;;;;;;11.88;7.63;;;;;;;-3.01;70.81;101596.78;4992792;28;20053;-62
2022/03/09 07:29:08;;;;;;;12.23;7.82;;;;;;;-2.97;71.12;101583.22;4992681;28;20057;-63
2022/03/09 07:32:14;;;;;;;12.37;7.43;;;;;;;-2.91;71.03;101585.91;4992670;28;20538;-62
2022/03/09 07:35:17;;;;;;;12.10;6.90;;;;;;;-2.81;70.54;101585.25;4992525;28;20105;-63
2022/03/09 07:38:22;;;;;;;10.80;7.43;;;;;;;-2.82;70.66;101578.41;4989305;28;20126;-63
2022/03/09 07:41:25;;;;;;;10.80;7.30;;;;;;;-2.60;69.28;101580.53;4991373;28;20081;-62
2022/03/09 07:44:29;;;;;;;15.40;7.38;;;;;;;-2.45;68.68;101572.28;4980068;28;20540;-62
2022/03/09 07:47:33;;;;;;;13.60;7.37;;;;;;;-2.23;68.51;101570.09;4981035;28;20044;-62
2022/03/09 07:50:37;;;;;;;19.37;8.37;;;;;;;-2.07;69.38;101555.81;4996212;28;20492;-62
2022/03/09 07:53:43;;;;;;;13.67;8.00;;;;;;;-2.04;69.45;101571.22;4992137;28;20053;-62
2022/03/09 07:56:46;;;;;;;14.18;8.23;;;;;;;-1.92;69.22;101574.00;5003928;28;20048;-63
2022/03/09 07:59:49;;;;;;;10.45;7.47;;;;;;;-1.84;68.51;101574.13;5011786;28;20518;-62
2022/03/09 08:02:53;;;;;;;13.43;7.32;;;;;;;-1.80;68.33;101576.75;5011378;28;20482;-62
2022/03/09 08:05:57;;;;;;;10.47;7.27;;;;;;;-1.70;67.71;101578.59;4993936;28;20531;-63
2022/03/09 08:09:00;;;;;;;11.10;7.85;;;;;;;-1.69;67.97;101575.22;4988235;28;20049;-63
2022/03/09 08:12:04;;;;;;;12.27;7.50;;;;;;;-1.60;68.11;101582.16;4987480;28;20133;-63
2022/03/09 08:15:08;;;;;;;11.20;7.87;;;;;;;-1.45;68.95;101584.09;4987314;28;20576;-63
2022/03/09 08:18:12;;;;;;;14.88;8.15;;;;;;;-1.31;68.60;101582.59;4989962;28;20523;-63
2022/03/09 08:21:15;;;;;;;11.05;7.38;;;;;;;-1.26;67.90;101580.94;4988349;28;20061;-63
2022/03/09 08:24:18;;;;;;;12.15;7.60;;;;;;;-1.03;67.33;101582.94;4988549;28;20105;-63
2022/03/09 08:27:22;;;;;;;;;;;;;;;-1.00;69.01;101578.69;4974735;28;20043;-63
2022/03/09 08:30:25;;;;;;;21.30;8.52;;;;;;;-0.82;68.17;101580.63;4990885;28;20414;-63
2022/03/09 08:33:29;;;;;;;16.70;8.75;;;;;;;-0.68;68.81;101585.06;4990561;28;20045;-63
2022/03/09 08:36:33;;;;;;;13.10;9.30;;;;;;;-0.81;68.64;101581.50;4991887;28;20132;-63
2022/03/09 08:39:36;;;;;;;;;;;;;;;-0.86;67.68;101581.44;4991911;28;20112;-63
2022/03/09 08:42:39;;;;;;;17.00;8.80;;;;;;;-0.66;67.33;101578.22;4991805;28;19920;-63
2022/03/09 08:45:42;;;;;;;13.85;8.38;;;;;;;-0.43;66.35;101581.88;4990673;28;20423;-63
2022/03/09 08:48:46;;;;;;;16.45;8.40;;;;;;;-0.18;65.65;101571.84;4985145;28;20096;-62
2022/03/09 08:51:50;;;;;;;12.52;8.43;;;;;;;0.02;63.89;101575.44;4975593;28;20412;-63
2022/03/09 08:54:54;;;;;;;14.15;8.43;;;;;;;0.23;64.36;101570.44;4984723;28;20120;-63
2022/03/09 08:57:57;;;;;;;14.85;8.65;;;;;;;0.39;63.57;101562.84;4991837;28;20540;-63
2022/03/09 09:01:01;;;;;;;12.27;8.55;;;;;;;0.56;63.31;101563.78;4990742;28;20044;-63
2022/03/09 09:04:04;;;;;;;13.60;8.25;;;;;;;0.74;62.47;101562.19;4990322;28;20124;-63
2022/03/09 09:07:07;;;;;;;13.35;8.55;;;;;;;0.90;61.82;101564.81;4990415;28;20049;-63
2022/03/09 09:10:11;;;;;;;12.18;8.27;;;;;;;1.01;63.09;101562.28;4991440;28;20124;-63
2022/03/09 09:13:15;;;;;;;14.57;8.40;;;;;;;1.16;62.36;101562.31;4993594;28;20053;-63
2022/03/09 09:16:18;;;;;;;10.93;7.53;;;;;;;1.26;62.00;101562.38;4992331;28;20114;-63
2022/03/09 09:19:22;;;;;;;;;;;;;;;1.35;61.70;101555.50;4995052;28;20128;-63
2022/03/09 09:22:26;;;;;;;13.55;8.30;;;;;;;1.53;61.45;101549.53;4995101;28;19921;-63
2022/03/09 09:25:29;;;;;;;14.57;8.73;;;;;;;1.61;60.33;101544.38;4994485;28;20045;-63
2022/03/09 09:28:32;;;;;;;13.23;9.18;;;;;;;1.84;60.56;101546.97;4994303;28;20045;-62
2022/03/09 09:31:36;;;;;;;13.82;8.68;;;;;;;1.97;60.00;101540.94;4994269;28;20484;-62
2022/03/09 09:34:39;;;;;;;12.68;8.55;;;;;;;2.09;59.37;101538.34;4974907;28;20073;-63
2022/03/09 09:37:44;;;;;;;20.30;8.05;;;;;;;2.28;58.77;101543.50;4974946;28;20041;-63
2022/03/09 09:40:51;;;;;;;16.17;8.93;;;;;;;2.36;58.50;101544.31;4974385;28;20508;-63
2022/03/09 09:43:55;;;;;;;19.45;8.75;;;;;;;2.48;58.79;101538.28;4974049;28;20109;-63
2022/03/09 09:46:58;;;;;;;15.60;8.63;;;;;;;2.59;58.43;101540.84;4970054;28;20089;-63
2022/03/09 09:50:02;;;;;;;12.07;8.27;;;;;;;2.70;57.22;101541.66;4980759;28;20121;-63
2022/03/09 09:53:10;;;;;;;20.20;9.10;;;;;;;2.77;57.65;101527.84;4985469;28;20468;-63
2022/03/09 09:56:13;;;;;;;16.20;8.57;;;;;;;2.95;57.09;101520.03;4989963;28;20431;-63
2022/03/09 09:59:17;;;;;;;11.48;7.47;;;;;;;3.24;57.25;101519.00;4993302;28;20121;-63
2022/03/09 10:02:20;;;;;;;14.68;8.15;;;;;;;3.44;55.55;101513.69;4993281;28;20078;-63
2022/03/09 10:05:23;;;;;;;14.77;7.95;;;;;;;3.53;56.01;101515.38;4993741;28;20053;-63
2022/03/09 10:08:27;;;;;;;12.82;7.78;;;;;;;3.78;54.26;101509.13;4993213;28;20053;-63
2022/03/09 10:11:48;;;;;;;;;;;;;;;3.99;53.55;101504.63;4993781;28;20471;-63
2022/03/09 10:14:53;;;;;;;11.10;7.32;;;;;;;4.10;54.38;101502.81;4993970;28;20161;-63
2022/03/09 10:18:11;;;;;;;12.93;7.03;;;;;;;4.16;53.32;101498.41;4639233;28;10000070;-63
2022/03/09 10:21:23;;;;;;;12.13;7.93;;;;;;;4.44;53.22;101490.38;4990154;28;20052;-63
2022/03/09 10:24:34;;;;;;;16.15;7.60;;;;;;;4.69;52.37;101492.63;4990242;28;20606;-63
2022/03/09 10:27:37;;;;;;;21.52;8.80;;;;;;;4.74;51.75;101491.72;4990231;28;20427;-63
2022/03/09 10:30:42;;;;;;;13.95;7.18;;;;;;;4.77;52.54;101486.50;4989810;28;20105;-63
2022/03/09 10:33:45;;;;;;;12.43;7.70;;;;;;;5.06;50.92;101487.84;5002125;28;20213;-63
2022/03/09 10:36:58;;;;;;;9.77;6.65;;;;;;;5.26;50.88;101480.63;5010097;28;20474;-63
2022/03/09 10:40:08;;;;;;;13.18;7.63;;;;;;;5.23;49.64;101465.13;5008875;28;20052;-63
2022/03/09 10:43:13;;;;;;;14.00;8.30;;;;;;;5.35;48.87;101475.28;5009931;28;20103;-63
2022/03/09 10:46:18;;;;;;;14.45;7.18;;;;;;;5.68;47.09;101477.38;5010105;28;20458;-63
2022/03/09 10:49:24;;;;;;;11.73;6.88;;;;;;;5.89;47.61;101470.97;5009662;28;20541;-63
2022/03/09 10:52:50;;;;;;;13.45;7.55;;;;;;;5.81;47.92;101469.38;5002446;28;20064;-63
2022/03/09 10:55:58;;;;;;;11.13;7.25;;;;;;;5.95;47.29;101465.69;5009916;28;20079;-63
2022/03/09 10:59:16;;;;;;;11.57;6.88;;;;;;;6.11;48.79;101461.94;5009983;28;20116;-63
2022/03/09 11:02:21;;;;;;;13.95;7.53;;;;;;;6.09;47.34;101455.91;5009495;28;20588;-63
2022/03/09 11:05:25;;;;;;;14.30;7.32;;;;;;;6.07;47.72;101455.09;5008767;28;20078;-63
2022/03/09 11:08:30;;;;;;;19.15;6.30;;;;;;;6.23;45.50;101446.13;5010308;28;20060;-63
2022/03/09 11:11:34;;;;;;;9.95;6.43;;;;;;;6.33;44.30;101445.94;5011347;28;20052;-63
2022/03/09 11:14:38;;;;;;;;;;;;;;;6.43;44.13;101434.47;5012579;28;20044;-63
2022/03/09 11:17:42;;;;;;;9.48;6.25;;;;;;;6.45;45.62;101430.97;5012238;28;19920;-63
2022/03/09 11:20:47;;;;;;;11.20;7.63;;;;;;;6.88;43.69;101435.22;5012045;28;20214;-63
2022/03/09 11:23:50;;;;;;;10.50;7.00;;;;;;;6.62;44.08;101437.53;5011962;28;20091;-63
2022/03/09 11:26:56;;;;;;;13.43;7.35;;;;;;;6.58;44.34;101435.91;5012004;28;20096;-63
2022/03/09 11:30:25;;;;;;;15.20;7.38;;;;;;;7.21;43.41;101422.31;5011826;28;20052;-63
2022/03/09 11:33:39;;;;;;;21.55;6.32;;;;;;;7.12;42.49;101426.00;5012043;28;20057;-63
2022/03/09 11:36:42;;;;;;;10.80;7.35;;;;;;;7.34;42.13;101426.38;5011618;28;20141;-63
2022/03/09 11:39:47;;;;;;;14.60;8.27;;;;;;;7.19;42.84;101432.78;5012030;28;20049;-63
2022/03/09 11:42:51;;;;;;;14.15;6.68;;;;;;;7.26;43.12;101428.28;5012116;28;20053;-63
2022/03/09 11:45:54;;;;;;;;;;;;;;;7.44;43.08;101425.22;5012336;28;20538;-63
2022/03/09 11:48:59;;;;;;;12.80;7.82;;;;;;;7.75;42.21;101415.78;5012191;28;19951;-63
2022/03/09 11:52:14;;;;;;;11.15;6.97;;;;;;;8.33;40.93;101411.59;5011640;28;20044;-64
2022/03/09 11:55:18;;;;;;;12.30;6.70;;;;;;;8.14;41.02;101414.72;5011850;28;20049;-64
2022/03/09 11:58:21;;;;;;;11.18;7.55;;;;;;;8.24;39.46;101414.47;5011914;28;20040;-64
2022/03/09 12:01:24;;;;;;;;;;;;;;;8.09;39.01;101411.38;5012286;28;20136;-63
2022/03/09 12:04:40;;;;;;;22.02;8.52;;;;;;;8.16;38.83;101405.09;5011763;28;19959;-63
2022/03/09 12:07:43;;;;;;;11.82;6.68;;;;;;;8.31;38.21;101400.34;5011754;28;20048;-64
2022/03/09 12:10:55;;;;;;;9.68;6.82;;;;;;;8.75;39.73;101393.84;5011757;28;20053;-64
2022/03/09 12:13:59;;;;;;;10.05;6.20;;;;;;;8.60;38.08;101384.72;5011723;28;20084;-64
2022/03/09 12:17:02;;;;;;;16.45;6.85;;;;;;;8.84;36.41;101382.28;5011656;28;20633;-64
2022/03/09 12:20:23;;;;;;;;;;;;;;;9.06;37.78;101369.38;5012314;28;20118;-64
2022/03/09 12:23:26;;;;;;;11.18;5.95;;;;;;;9.20;35.52;101363.72;5011599;28;19936;-64
2022/03/09 12:26:43;;;;;;;;;;;;;;;9.41;36.13;101368.25;5012039;28;20137;-64
2022/03/09 12:29:47;;;;;;;8.82;6.72;;;;;;;9.80;34.90;101370.38;4999381;28;19924;-64
2022/03/09 12:32:51;;;;;;;;;;;;;;;10.12;34.96;101353.53;5011995;28;20105;-64
2022/03/09 12:36:11;;;;;;;12.73;5.85;;;;;;;10.38;32.53;101346.50;5011526;28;19921;-64
2022/03/09 12:39:15;;;;;;;15.70;7.00;;;;;;;10.36;31.26;101343.91;5010378;28;20073;-64
2022/03/09 12:42:19;;;;;;;9.05;5.90;;;;;;;10.68;31.66;101334.81;5010918;28;20076;-64
2022/03/09 12:45:22;;;;;;;13.20;7.22;;;;;;;11.13;30.13;101346.09;5010874;28;20125;-64
2022/03/09 12:48:25;;;;;;;;;;;;;;;11.29;28.94;101341.91;5011675;28;20609;-63
2022/03/09 12:51:29;;;;;;;11.10;6.60;;;;;;;11.67;27.54;101333.34;5006287;28;20238;-64
2022/03/09 12:54:33;;;;;;;13.73;6.38;;;;;;;12.00;26.75;101337.13;4987563;28;20121;-63
2022/03/09 12:57:36;;;;;;;11.07;6.63;;;;;;;12.15;25.93;101332.09;4988369;28;20049;-64
2022/03/09 13:00:40;;;;;;;10.52;6.75;;;;;;;12.41;25.93;101330.88;4988801;28;20065;-63
2022/03/09 13:03:45;;;;;;;9.82;7.85;;;;;;;12.43;25.25;101332.50;4990615;28;20101;-64
2022/03/09 13:06:50;;;;;;;12.88;10.88;;;;;;;12.58;24.66;101330.94;4991581;28;20095;-64
2022/03/09 13:10:14;;;;;;;10.57;7.53;;;;;;;13.42;24.38;101333.81;4992057;28;20046;-64
2022/03/09 13:13:18;;;;;;;7.38;5.75;;;;;;;14.38;22.70;101315.50;4992015;28;20634;-64
2022/03/09 13:16:25;;;;;;;9.85;6.53;;;;;;;15.66;21.96;101321.31;4992284;28;20783;-64
2022/03/09 13:19:33;;;;;;;11.43;7.60;;;;;;;14.40;20.49;101318.06;4992025;28;20141;-64
2022/03/09 13:22:42;;;;;;;8.75;7.00;;;;;;;18.04;18.21;101303.91;4991492;28;20077;-64
2022/03/09 13:25:45;;;;;;;10.10;7.05;;;;;;;21.14;15.20;101297.47;4991814;28;20605;-64
2022/03/09 13:28:56;;;;;;;9.63;6.68;;;;;;;23.37;13.83;101293.66;4991323;28;20061;-64
2022/03/09 13:32:02;;;;;;;12.02;8.00;;;;;;;24.18;12.97;101290.38;4991436;28;20076;-65
2022/03/09 13:35:05;;;;;;;10.70;7.55;;;;;;;26.16;11.85;101290.69;4991113;28;20431;-65
2022/03/09 13:38:08;;;;;;;6.80;6.10;;;;;;;27.68;11.15;101287.44;4987076;28;20088;-65
2022/03/09 13:41:12;;;;;;;8.25;7.00;;;;;;;26.35;11.15;101283.31;4991124;28;20096;-65
2022/03/09 13:44:29;;;;;;;8.32;6.20;;;;;;;28.35;9.99;101283.44;4991111;28;20523;-63
2022/03/09 13:47:46;;;;;;;10.48;6.20;;;;;;;29.37;9.33;101279.41;4991015;28;20053;-63
2022/03/09 13:51:00;;;;;;;7.28;5.70;;;;;;;26.89;9.55;101276.50;4991044;28;20096;-63
2022/03/09 13:54:05;;;;;;;9.48;6.00;;;;;;;29.32;8.96;101281.81;4991191;28;20045;-63
2022/03/09 13:57:09;;;;;;;6.93;6.05;;;;;;;29.07;9.10;101275.00;4990904;28;20062;-63
2022/03/09 14:00:21;;;;;;;7.50;6.35;;;;;;;28.61;9.46;101273.19;4990771;28;20045;-64
2022/03/09 14:03:25;;;;;;;10.73;6.22;;;;;;;29.06;9.26;101270.63;4991136;28;20045;-64
2022/03/09 14:06:33;;;;;;;8.00;6.45;;;;;;;26.02;9.67;101277.88;4990711;28;20522;-63
2022/03/09 14:09:37;;;;;;;9.20;5.75;;;;;;;23.18;11.67;101271.38;4990584;28;20101;-63
2022/03/09 14:12:45;;;;;;;8.55;5.47;;;;;;;25.19;11.20;101265.06;4990938;28;20530;-63
2022/03/09 14:15:48;;;;;;;8.55;6.18;;;;;;;23.25;12.77;101276.13;4989529;28;20096;-63
2022/03/09 14:19:18;;;;;;;6.85;5.95;;;;;;;23.32;12.76;101266.56;4990476;28;20428;-64
2022/03/09 14:22:21;;;;;;;15.65;9.07;;;;;;;19.23;14.58;101276.53;4990984;28;20558;-64
2022/03/09 14:25:25;;;;;;;10.30;9.10;;;;;;;22.29;12.82;101266.19;4990268;28;20045;-64
2022/03/09 14:28:30;;;;;;;8.52;5.68;;;;;;;23.48;13.04;101272.09;4990445;28;20056;-64
2022/03/09 14:31:34;;;;;;;8.02;6.38;;;;;;;26.30;11.19;101258.88;4990395;28;20149;-64
2022/03/09 14:34:37;;;;;;;11.65;7.53;;;;;;;25.48;10.76;101264.72;4990768;28;20100;-64
2022/03/09 14:37:44;;;;;;;7.88;6.30;;;;;;;26.81;10.79;101256.91;4990915;28;20061;-64